sensor_id;sensor_type;location;lat;lon;timestamp;P1;P2;P0
55043;PMS5003;54902;50.420;18.854;2023-02-26T00:00:23;8;8;5
55043;PMS5003;54902;50.420;18.854;2023-02-26T00:00:54;8;8;5
55043;PMS5003;54902;50.420;18.854;2023-02-26T00:01:27;8;8;5
55043;PMS5003;54902;50.420;18.854;2023-02-26T00:02:00;8;8;5
55043;PMS5003;54902;50.420;18.854;2023-02-26T00:02:32;8;8;5
55043;PMS5003;54902;50.420;18.854;2023-02-26T00:03:03;8;8;5
55043;PMS5003;54902;50.420;18.854;2023-02-26T00:03:34;9;9;6
55043;PMS5003;54902;50.420;18.854;2023-02-26T00:04:06;9;9;6
55043;PMS5003;54902;50.420;18.854;2023-02-26T00:04:37;9;9;6
55043;PMS5003;54902;50.420;18.854;2023-02-26T00:05:08;9;9;6
55043;PMS5003;54902;50.420;18.854;2023-02-26T00:05:39;9;9;6
55043;PMS5003;54902;50.420;18.854;2023-02-26T00:06:10;9;9;6
55043;PMS5003;54902;50.420;18.854;2023-02-26T00:06:41;9;9;6
55043;PMS5003;54902;50.420;18.854;2023-02-26T00:07:23;9;9;6
55043;PMS5003;54902;50.420;18.854;2023-02-26T00:07:58;9;9;6
55043;PMS5003;54902;50.420;18.854;2023-02-26T00:08:29;9;9;6
55043;PMS5003;54902;50.420;18.854;2023-02-26T00:09:01;5;5;5
55043;PMS5003;54902;50.420;18.854;2023-02-26T00:09:33;5;5;5
55043;PMS5003;54902;50.420;18.854;2023-02-26T00:10:07;5;5;5
55043;PMS5003;54902;50.420;18.854;2023-02-26T00:10:40;5;5;5
55043;PMS5003;54902;50.420;18.854;2023-02-26T00:11:11;5;5;5
55043;PMS5003;54902;50.420;18.854;2023-02-26T00:11:44;5;5;5
55043;PMS5003;54902;50.420;18.854;2023-02-26T00:12:15;5;5;5
55043;PMS5003;54902;50.420;18.854;2023-02-26T00:12:47;5;5;5
55043;PMS5003;54902;50.420;18.854;2023-02-26T00:13:18;5;5;5
55043;PMS5003;54902;50.420;18.854;2023-02-26T00:13:49;5;5;5
55043;PMS5003;54902;50.420;18.854;2023-02-26T00:14:21;9;9;9
55043;PMS5003;54902;50.420;18.854;2023-02-26T00:14:53;9;9;9
55043;PMS5003;54902;50.420;18.854;2023-02-26T00:15:24;9;9;9
55043;PMS5003;54902;50.420;18.854;2023-02-26T00:15:57;9;9;9
55043;PMS5003;54902;50.420;18.854;2023-02-26T00:16:31;9;9;9
55043;PMS5003;54902;50.420;18.854;2023-02-26T00:17:12;9;9;9
55043;PMS5003;54902;50.420;18.854;2023-02-26T00:18:29;9;9;9
55043;PMS5003;54902;50.420;18.854;2023-02-26T00:19:01;9;9;9
55043;PMS5003;54902;50.420;18.854;2023-02-26T00:19:34;9;9;9
55043;PMS5003;54902;50.420;18.854;2023-02-26T00:20:06;9;9;9
55043;PMS5003;54902;50.420;18.854;2023-02-26T00:20:38;9;9;9
55043;PMS5003;54902;50.420;18.854;2023-02-26T00:21:18;9;9;9
55043;PMS5003;54902;50.420;18.854;2023-02-26T00:21:47;9;9;9
55043;PMS5003;54902;50.420;18.854;2023-02-26T00:22:18;9;9;9
55043;PMS5003;54902;50.420;18.854;2023-02-26T00:22:50;9;9;9
55043;PMS5003;54902;50.420;18.854;2023-02-26T00:23:21;9;9;9
55043;PMS5003;54902;50.420;18.854;2023-02-26T00:23:54;9;9;9
55043;PMS5003;54902;50.420;18.854;2023-02-26T00:24:25;9;9;9
55043;PMS5003;54902;50.420;18.854;2023-02-26T00:24:56;9;9;9
55043;PMS5003;54902;50.420;18.854;2023-02-26T00:25:27;9;9;9
55043;PMS5003;54902;50.420;18.854;2023-02-26T00:25:58;9;9;9
55043;PMS5003;54902;50.420;18.854;2023-02-26T00:26:29;9;9;9
55043;PMS5003;54902;50.420;18.854;2023-02-26T00:27:01;9;9;9
55043;PMS5003;54902;50.420;18.854;2023-02-26T00:27:32;9;9;9
55043;PMS5003;54902;50.420;18.854;2023-02-26T00:28:03;9;9;9
55043;PMS5003;54902;50.420;18.854;2023-02-26T00:28:34;9;9;9
55043;PMS5003;54902;50.420;18.854;2023-02-26T00:29:05;9;9;9
55043;PMS5003;54902;50.420;18.854;2023-02-26T00:29:37;7;7;7
55043;PMS5003;54902;50.420;18.854;2023-02-26T00:30:08;7;7;7
55043;PMS5003;54902;50.420;18.854;2023-02-26T00:30:40;4;2;0
55043;PMS5003;54902;50.420;18.854;2023-02-26T00:31:13;4;2;0
55043;PMS5003;54902;50.420;18.854;2023-02-26T00:31:44;4;2;0
55043;PMS5003;54902;50.420;18.854;2023-02-26T00:32:16;4;2;0
55043;PMS5003;54902;50.420;18.854;2023-02-26T00:32:50;4;2;0
55043;PMS5003;54902;50.420;18.854;2023-02-26T00:33:21;4;2;0
55043;PMS5003;54902;50.420;18.854;2023-02-26T00:33:53;4;2;0
55043;PMS5003;54902;50.420;18.854;2023-02-26T00:34:26;4;2;0
55043;PMS5003;54902;50.420;18.854;2023-02-26T00:34:57;4;2;0
55043;PMS5003;54902;50.420;18.854;2023-02-26T00:35:28;4;2;0
55043;PMS5003;54902;50.420;18.854;2023-02-26T00:36:02;6;4;1
55043;PMS5003;54902;50.420;18.854;2023-02-26T00:37:26;6;4;1
55043;PMS5003;54902;50.420;18.854;2023-02-26T00:38:10;6;4;1
55043;PMS5003;54902;50.420;18.854;2023-02-26T00:40:57;6;4;1
55043;PMS5003;54902;50.420;18.854;2023-02-26T00:41:29;6;4;1
55043;PMS5003;54902;50.420;18.854;2023-02-26T00:42:00;6;4;1
55043;PMS5003;54902;50.420;18.854;2023-02-26T00:42:33;6;4;1
55043;PMS5003;54902;50.420;18.854;2023-02-26T00:43:05;6;4;1
55043;PMS5003;54902;50.420;18.854;2023-02-26T00:43:39;6;4;1
55043;PMS5003;54902;50.420;18.854;2023-02-26T00:44:10;6;4;1
55043;PMS5003;54902;50.420;18.854;2023-02-26T00:44:41;6;4;1
55043;PMS5003;54902;50.420;18.854;2023-02-26T00:45:13;6;4;1
55043;PMS5003;54902;50.420;18.854;2023-02-26T00:47:22;6;4;1
55043;PMS5003;54902;50.420;18.854;2023-02-26T00:49:17;6;4;1
55043;PMS5003;54902;50.420;18.854;2023-02-26T00:50:41;6;4;1
55043;PMS5003;54902;50.420;18.854;2023-02-26T00:52:01;6;4;1
55043;PMS5003;54902;50.420;18.854;2023-02-26T00:53:21;6;4;1
55043;PMS5003;54902;50.420;18.854;2023-02-26T00:54:41;6;4;1
55043;PMS5003;54902;50.420;18.854;2023-02-26T00:55:12;6;4;1
55043;PMS5003;54902;50.420;18.854;2023-02-26T00:55:42;6;4;1
55043;PMS5003;54902;50.420;18.854;2023-02-26T00:56:13;6;4;1
55043;PMS5003;54902;50.420;18.854;2023-02-26T00:56:44;8;7;4
55043;PMS5003;54902;50.420;18.854;2023-02-26T00:57:15;8;7;4
55043;PMS5003;54902;50.420;18.854;2023-02-26T00:57:46;8;7;4
55043;PMS5003;54902;50.420;18.854;2023-02-26T00:58:17;8;7;4
55043;PMS5003;54902;50.420;18.854;2023-02-26T00:58:48;8;7;4
55043;PMS5003;54902;50.420;18.854;2023-02-26T00:59:19;8;7;4
55043;PMS5003;54902;50.420;18.854;2023-02-26T00:59:51;8;7;4
55043;PMS5003;54902;50.420;18.854;2023-02-26T01:00:22;11;11;8
55043;PMS5003;54902;50.420;18.854;2023-02-26T01:00:53;11;11;8
55043;PMS5003;54902;50.420;18.854;2023-02-26T01:01:24;11;11;8
55043;PMS5003;54902;50.420;18.854;2023-02-26T01:01:54;11;11;8
55043;PMS5003;54902;50.420;18.854;2023-02-26T01:02:26;11;11;8
55043;PMS5003;54902;50.420;18.854;2023-02-26T01:02:57;11;11;8
55043;PMS5003;54902;50.420;18.854;2023-02-26T01:03:29;11;11;8
55043;PMS5003;54902;50.420;18.854;2023-02-26T01:04:01;11;11;8
55043;PMS5003;54902;50.420;18.854;2023-02-26T01:04:33;11;11;8
55043;PMS5003;54902;50.420;18.854;2023-02-26T01:05:04;11;11;8
55043;PMS5003;54902;50.420;18.854;2023-02-26T01:05:37;12;12;9
55043;PMS5003;54902;50.420;18.854;2023-02-26T01:06:12;8;8;5
55043;PMS5003;54902;50.420;18.854;2023-02-26T01:06:47;8;8;5
55043;PMS5003;54902;50.420;18.854;2023-02-26T01:07:21;8;8;5
55043;PMS5003;54902;50.420;18.854;2023-02-26T01:08:44;8;8;5
55043;PMS5003;54902;50.420;18.854;2023-02-26T01:10:06;8;8;5
55043;PMS5003;54902;50.420;18.854;2023-02-26T01:10:38;8;8;5
55043;PMS5003;54902;50.420;18.854;2023-02-26T01:11:09;8;8;5
55043;PMS5003;54902;50.420;18.854;2023-02-26T01:11:40;13;13;9
55043;PMS5003;54902;50.420;18.854;2023-02-26T01:12:12;13;13;9
55043;PMS5003;54902;50.420;18.854;2023-02-26T01:12:43;13;13;9
55043;PMS5003;54902;50.420;18.854;2023-02-26T01:13:15;13;13;9
55043;PMS5003;54902;50.420;18.854;2023-02-26T01:13:46;8;8;6
55043;PMS5003;54902;50.420;18.854;2023-02-26T01:14:17;8;8;6
55043;PMS5003;54902;50.420;18.854;2023-02-26T01:14:49;8;8;6
55043;PMS5003;54902;50.420;18.854;2023-02-26T01:15:22;8;8;6
55043;PMS5003;54902;50.420;18.854;2023-02-26T01:15:54;8;8;6
55043;PMS5003;54902;50.420;18.854;2023-02-26T01:18:43;11;11;8
55043;PMS5003;54902;50.420;18.854;2023-02-26T01:19:24;11;11;8
55043;PMS5003;54902;50.420;18.854;2023-02-26T01:20:07;11;11;8
55043;PMS5003;54902;50.420;18.854;2023-02-26T01:20:55;11;11;8
55043;PMS5003;54902;50.420;18.854;2023-02-26T01:21:30;11;11;8
55043;PMS5003;54902;50.420;18.854;2023-02-26T01:22:56;11;11;8
55043;PMS5003;54902;50.420;18.854;2023-02-26T01:23:34;11;11;8
55043;PMS5003;54902;50.420;18.854;2023-02-26T01:24:10;12;12;10
55043;PMS5003;54902;50.420;18.854;2023-02-26T01:24:50;12;12;10
55043;PMS5003;54902;50.420;18.854;2023-02-26T01:26:26;12;12;10
55043;PMS5003;54902;50.420;18.854;2023-02-26T01:26:52;12;12;10
55043;PMS5003;54902;50.420;18.854;2023-02-26T01:27:24;12;12;10
55043;PMS5003;54902;50.420;18.854;2023-02-26T01:27:55;12;12;10
55043;PMS5003;54902;50.420;18.854;2023-02-26T01:28:27;12;12;10
55043;PMS5003;54902;50.420;18.854;2023-02-26T01:28:58;12;12;10
55043;PMS5003;54902;50.420;18.854;2023-02-26T01:29:30;12;12;10
55043;PMS5003;54902;50.420;18.854;2023-02-26T01:30:02;9;9;6
55043;PMS5003;54902;50.420;18.854;2023-02-26T01:30:35;9;9;6
55043;PMS5003;54902;50.420;18.854;2023-02-26T01:31:10;9;9;6
55043;PMS5003;54902;50.420;18.854;2023-02-26T01:31:54;7;7;5
55043;PMS5003;54902;50.420;18.854;2023-02-26T01:33:57;7;7;5
55043;PMS5003;54902;50.420;18.854;2023-02-26T01:34:41;7;7;5
55043;PMS5003;54902;50.420;18.854;2023-02-26T01:36:50;6;6;6
55043;PMS5003;54902;50.420;18.854;2023-02-26T01:37:28;6;6;6
55043;PMS5003;54902;50.420;18.854;2023-02-26T01:38:13;6;6;6
55043;PMS5003;54902;50.420;18.854;2023-02-26T01:39:42;6;6;6
55043;PMS5003;54902;50.420;18.854;2023-02-26T01:39:43;6;6;6
55043;PMS5003;54902;50.420;18.854;2023-02-26T01:42:33;6;6;6
55043;PMS5003;54902;50.420;18.854;2023-02-26T01:43:18;6;6;6
55043;PMS5003;54902;50.420;18.854;2023-02-26T01:45:18;7;7;7
55043;PMS5003;54902;50.420;18.854;2023-02-26T01:47:22;7;7;7
55043;PMS5003;54902;50.420;18.854;2023-02-26T01:48:06;7;7;7
55043;PMS5003;54902;50.420;18.854;2023-02-26T01:49:21;7;7;7
55043;PMS5003;54902;50.420;18.854;2023-02-26T01:49:53;7;7;7
55043;PMS5003;54902;50.420;18.854;2023-02-26T01:50:25;7;7;7
55043;PMS5003;54902;50.420;18.854;2023-02-26T01:50:59;7;7;7
55043;PMS5003;54902;50.420;18.854;2023-02-26T01:53:38;7;7;5
55043;PMS5003;54902;50.420;18.854;2023-02-26T01:54:09;7;7;5
55043;PMS5003;54902;50.420;18.854;2023-02-26T01:54:41;7;7;5
55043;PMS5003;54902;50.420;18.854;2023-02-26T01:55:22;7;7;5
55043;PMS5003;54902;50.420;18.854;2023-02-26T01:56:00;12;11;7
55043;PMS5003;54902;50.420;18.854;2023-02-26T01:56:37;9;8;6
55043;PMS5003;54902;50.420;18.854;2023-02-26T01:57:14;9;8;6
55043;PMS5003;54902;50.420;18.854;2023-02-26T01:57:48;9;8;6
55043;PMS5003;54902;50.420;18.854;2023-02-26T01:58:21;9;8;6
55043;PMS5003;54902;50.420;18.854;2023-02-26T01:58:55;9;8;6
55043;PMS5003;54902;50.420;18.854;2023-02-26T01:59:28;9;8;6
55043;PMS5003;54902;50.420;18.854;2023-02-26T01:59:59;9;8;6
55043;PMS5003;54902;50.420;18.854;2023-02-26T02:00:30;9;8;6
55043;PMS5003;54902;50.420;18.854;2023-02-26T02:01:01;9;8;6
55043;PMS5003;54902;50.420;18.854;2023-02-26T02:01:35;9;8;6
55043;PMS5003;54902;50.420;18.854;2023-02-26T02:02:08;13;12;9
55043;PMS5003;54902;50.420;18.854;2023-02-26T02:02:40;13;12;9
55043;PMS5003;54902;50.420;18.854;2023-02-26T02:03:12;13;12;9
55043;PMS5003;54902;50.420;18.854;2023-02-26T02:03:42;13;12;9
55043;PMS5003;54902;50.420;18.854;2023-02-26T02:04:15;13;12;9
55043;PMS5003;54902;50.420;18.854;2023-02-26T02:04:46;13;12;9
55043;PMS5003;54902;50.420;18.854;2023-02-26T02:05:21;13;12;9
55043;PMS5003;54902;50.420;18.854;2023-02-26T02:06:01;13;12;9
55043;PMS5003;54902;50.420;18.854;2023-02-26T02:06:36;13;12;9
55043;PMS5003;54902;50.420;18.854;2023-02-26T02:07:09;13;12;9
55043;PMS5003;54902;50.420;18.854;2023-02-26T02:07:40;13;12;9
55043;PMS5003;54902;50.420;18.854;2023-02-26T02:08:12;13;12;9
55043;PMS5003;54902;50.420;18.854;2023-02-26T02:08:43;13;12;9
55043;PMS5003;54902;50.420;18.854;2023-02-26T02:09:14;13;12;9
55043;PMS5003;54902;50.420;18.854;2023-02-26T02:09:45;13;12;9
55043;PMS5003;54902;50.420;18.854;2023-02-26T02:10:17;13;12;9
55043;PMS5003;54902;50.420;18.854;2023-02-26T02:10:48;13;12;9
55043;PMS5003;54902;50.420;18.854;2023-02-26T02:11:20;13;12;9
55043;PMS5003;54902;50.420;18.854;2023-02-26T02:12:37;13;12;9
55043;PMS5003;54902;50.420;18.854;2023-02-26T02:14:00;8;8;6
55043;PMS5003;54902;50.420;18.854;2023-02-26T02:18:30;8;8;6
55043;PMS5003;54902;50.420;18.854;2023-02-26T02:22:34;5;5;4
55043;PMS5003;54902;50.420;18.854;2023-02-26T02:23:16;5;5;4
55043;PMS5003;54902;50.420;18.854;2023-02-26T02:23:57;5;5;4
55043;PMS5003;54902;50.420;18.854;2023-02-26T02:30:28;12;12;8
55043;PMS5003;54902;50.420;18.854;2023-02-26T02:31:05;12;12;8
55043;PMS5003;54902;50.420;18.854;2023-02-26T02:33:11;12;12;8
55043;PMS5003;54902;50.420;18.854;2023-02-26T02:34:29;13;13;9
55043;PMS5003;54902;50.420;18.854;2023-02-26T02:35:08;13;13;9
55043;PMS5003;54902;50.420;18.854;2023-02-26T02:35:53;13;13;9
55043;PMS5003;54902;50.420;18.854;2023-02-26T02:36:33;13;13;9
55043;PMS5003;54902;50.420;18.854;2023-02-26T02:37:55;13;13;9
55043;PMS5003;54902;50.420;18.854;2023-02-26T02:40:00;13;13;9
55043;PMS5003;54902;50.420;18.854;2023-02-26T02:40:38;13;13;9
55043;PMS5003;54902;50.420;18.854;2023-02-26T02:41:21;13;13;9
55043;PMS5003;54902;50.420;18.854;2023-02-26T02:42:05;13;13;9
55043;PMS5003;54902;50.420;18.854;2023-02-26T02:43:24;13;13;9
55043;PMS5003;54902;50.420;18.854;2023-02-26T02:44:01;13;13;9
55043;PMS5003;54902;50.420;18.854;2023-02-26T02:44:37;13;13;9
55043;PMS5003;54902;50.420;18.854;2023-02-26T02:45:17;13;13;9
55043;PMS5003;54902;50.420;18.854;2023-02-26T02:45:58;13;13;9
55043;PMS5003;54902;50.420;18.854;2023-02-26T02:46:35;13;13;9
55043;PMS5003;54902;50.420;18.854;2023-02-26T02:47:10;13;13;9
55043;PMS5003;54902;50.420;18.854;2023-02-26T02:47:43;13;13;9
55043;PMS5003;54902;50.420;18.854;2023-02-26T02:49:06;13;13;9
55043;PMS5003;54902;50.420;18.854;2023-02-26T02:49:44;13;13;9
55043;PMS5003;54902;50.420;18.854;2023-02-26T02:50:21;13;13;9
55043;PMS5003;54902;50.420;18.854;2023-02-26T02:51:00;13;13;9
55043;PMS5003;54902;50.420;18.854;2023-02-26T02:51:41;13;13;9
55043;PMS5003;54902;50.420;18.854;2023-02-26T02:52:24;13;13;9
55043;PMS5003;54902;50.420;18.854;2023-02-26T02:53:47;13;13;9
55043;PMS5003;54902;50.420;18.854;2023-02-26T02:54:32;13;13;9
55043;PMS5003;54902;50.420;18.854;2023-02-26T02:55:21;13;13;9
55043;PMS5003;54902;50.420;18.854;2023-02-26T02:55:52;13;13;9
55043;PMS5003;54902;50.420;18.854;2023-02-26T02:57:15;6;6;5
55043;PMS5003;54902;50.420;18.854;2023-02-26T02:58:35;6;6;5
55043;PMS5003;54902;50.420;18.854;2023-02-26T02:59:55;6;6;5
55043;PMS5003;54902;50.420;18.854;2023-02-26T03:00:31;6;6;5
55043;PMS5003;54902;50.420;18.854;2023-02-26T03:01:08;5;5;3
55043;PMS5003;54902;50.420;18.854;2023-02-26T03:01:44;5;5;3
55043;PMS5003;54902;50.420;18.854;2023-02-26T03:04:25;5;5;3
55043;PMS5003;54902;50.420;18.854;2023-02-26T03:04:57;5;5;3
55043;PMS5003;54902;50.420;18.854;2023-02-26T03:05:27;5;5;3
55043;PMS5003;54902;50.420;18.854;2023-02-26T03:05:58;5;5;3
55043;PMS5003;54902;50.420;18.854;2023-02-26T03:06:30;5;5;3
55043;PMS5003;54902;50.420;18.854;2023-02-26T03:07:01;3;3;1
55043;PMS5003;54902;50.420;18.854;2023-02-26T03:07:35;3;3;1
55043;PMS5003;54902;50.420;18.854;2023-02-26T03:08:12;3;3;1
55043;PMS5003;54902;50.420;18.854;2023-02-26T03:08:46;3;3;1
55043;PMS5003;54902;50.420;18.854;2023-02-26T03:09:18;3;3;1
55043;PMS5003;54902;50.420;18.854;2023-02-26T03:09:49;3;3;1
55043;PMS5003;54902;50.420;18.854;2023-02-26T03:10:20;3;3;1
55043;PMS5003;54902;50.420;18.854;2023-02-26T03:10:51;3;3;1
55043;PMS5003;54902;50.420;18.854;2023-02-26T03:11:22;3;3;1
55043;PMS5003;54902;50.420;18.854;2023-02-26T03:11:53;3;3;1
55043;PMS5003;54902;50.420;18.854;2023-02-26T03:12:30;6;6;3
55043;PMS5003;54902;50.420;18.854;2023-02-26T03:13:02;6;6;3
55043;PMS5003;54902;50.420;18.854;2023-02-26T03:13:33;6;6;3
55043;PMS5003;54902;50.420;18.854;2023-02-26T03:14:05;6;6;3
55043;PMS5003;54902;50.420;18.854;2023-02-26T03:14:39;6;6;3
55043;PMS5003;54902;50.420;18.854;2023-02-26T03:15:12;6;6;3
55043;PMS5003;54902;50.420;18.854;2023-02-26T03:17:13;4;4;2
55043;PMS5003;54902;50.420;18.854;2023-02-26T03:18:45;4;4;2
55043;PMS5003;54902;50.420;18.854;2023-02-26T03:19:25;4;4;2
55043;PMS5003;54902;50.420;18.854;2023-02-26T03:20:53;4;4;2
55043;PMS5003;54902;50.420;18.854;2023-02-26T03:22:59;4;4;2
55043;PMS5003;54902;50.420;18.854;2023-02-26T03:24:20;4;4;2
55043;PMS5003;54902;50.420;18.854;2023-02-26T03:24:58;4;4;2
55043;PMS5003;54902;50.420;18.854;2023-02-26T03:25:37;2;2;1
55043;PMS5003;54902;50.420;18.854;2023-02-26T03:26:23;2;2;1
55043;PMS5003;54902;50.420;18.854;2023-02-26T03:27:02;2;2;1
55043;PMS5003;54902;50.420;18.854;2023-02-26T03:28:25;2;2;1
55043;PMS5003;54902;50.420;18.854;2023-02-26T03:31:55;2;2;1
55043;PMS5003;54902;50.420;18.854;2023-02-26T03:32:38;3;3;1
55043;PMS5003;54902;50.420;18.854;2023-02-26T03:35:21;3;3;1
55043;PMS5003;54902;50.420;18.854;2023-02-26T03:36:46;3;3;1
55043;PMS5003;54902;50.420;18.854;2023-02-26T03:37:25;3;3;1
55043;PMS5003;54902;50.420;18.854;2023-02-26T03:38:05;3;3;1
55043;PMS5003;54902;50.420;18.854;2023-02-26T03:38:45;2;2;1
55043;PMS5003;54902;50.420;18.854;2023-02-26T03:39:33;4;4;3
55043;PMS5003;54902;50.420;18.854;2023-02-26T03:40:05;4;4;3
55043;PMS5003;54902;50.420;18.854;2023-02-26T03:40:45;4;4;3
55043;PMS5003;54902;50.420;18.854;2023-02-26T03:42:07;4;4;3
55043;PMS5003;54902;50.420;18.854;2023-02-26T03:42:48;4;4;3
55043;PMS5003;54902;50.420;18.854;2023-02-26T03:44:29;4;4;3
55043;PMS5003;54902;50.420;18.854;2023-02-26T03:44:55;4;4;3
55043;PMS5003;54902;50.420;18.854;2023-02-26T03:45:32;4;4;3
55043;PMS5003;54902;50.420;18.854;2023-02-26T03:46:05;7;7;4
55043;PMS5003;54902;50.420;18.854;2023-02-26T03:46:51;7;7;4
55043;PMS5003;54902;50.420;18.854;2023-02-26T03:47:20;4;4;3
55043;PMS5003;54902;50.420;18.854;2023-02-26T03:47:52;4;4;3
55043;PMS5003;54902;50.420;18.854;2023-02-26T03:48:25;4;4;3
55043;PMS5003;54902;50.420;18.854;2023-02-26T03:49:00;4;4;3
55043;PMS5003;54902;50.420;18.854;2023-02-26T03:49:40;4;4;3
55043;PMS5003;54902;50.420;18.854;2023-02-26T03:50:37;5;5;3
55043;PMS5003;54902;50.420;18.854;2023-02-26T03:50:58;5;5;3
55043;PMS5003;54902;50.420;18.854;2023-02-26T03:51:34;5;5;3
55043;PMS5003;54902;50.420;18.854;2023-02-26T03:52:08;11;10;7
55043;PMS5003;54902;50.420;18.854;2023-02-26T03:52:39;11;10;7
55043;PMS5003;54902;50.420;18.854;2023-02-26T03:53:16;11;10;7
55043;PMS5003;54902;50.420;18.854;2023-02-26T03:53:56;11;10;7
55043;PMS5003;54902;50.420;18.854;2023-02-26T03:55:16;11;10;7
55043;PMS5003;54902;50.420;18.854;2023-02-26T03:55:52;11;10;7
55043;PMS5003;54902;50.420;18.854;2023-02-26T03:57:11;11;10;7
55043;PMS5003;54902;50.420;18.854;2023-02-26T03:57:42;11;10;7
55043;PMS5003;54902;50.420;18.854;2023-02-26T03:58:13;15;15;9
55043;PMS5003;54902;50.420;18.854;2023-02-26T03:58:44;15;15;9
55043;PMS5003;54902;50.420;18.854;2023-02-26T03:59:16;15;15;9
55043;PMS5003;54902;50.420;18.854;2023-02-26T03:59:47;15;15;9
55043;PMS5003;54902;50.420;18.854;2023-02-26T04:00:19;15;15;9
55043;PMS5003;54902;50.420;18.854;2023-02-26T04:00:52;15;15;9
55043;PMS5003;54902;50.420;18.854;2023-02-26T04:01:31;15;15;9
55043;PMS5003;54902;50.420;18.854;2023-02-26T04:02:12;15;15;9
55043;PMS5003;54902;50.420;18.854;2023-02-26T04:02:57;15;15;9
55043;PMS5003;54902;50.420;18.854;2023-02-26T04:05:37;15;15;9
55043;PMS5003;54902;50.420;18.854;2023-02-26T04:06:13;15;15;9
55043;PMS5003;54902;50.420;18.854;2023-02-26T04:06:44;15;15;9
55043;PMS5003;54902;50.420;18.854;2023-02-26T04:07:17;15;15;9
55043;PMS5003;54902;50.420;18.854;2023-02-26T04:07:49;15;15;9
55043;PMS5003;54902;50.420;18.854;2023-02-26T04:08:21;15;15;9
55043;PMS5003;54902;50.420;18.854;2023-02-26T04:08:52;12;12;7
55043;PMS5003;54902;50.420;18.854;2023-02-26T04:09:23;12;12;7
55043;PMS5003;54902;50.420;18.854;2023-02-26T04:09:55;3;3;1
55043;PMS5003;54902;50.420;18.854;2023-02-26T04:10:28;3;3;1
55043;PMS5003;54902;50.420;18.854;2023-02-26T04:11:08;3;3;1
55043;PMS5003;54902;50.420;18.854;2023-02-26T04:11:42;3;3;1
55043;PMS5003;54902;50.420;18.854;2023-02-26T04:12:19;4;4;2
55043;PMS5003;54902;50.420;18.854;2023-02-26T04:12:57;4;4;2
55043;PMS5003;54902;50.420;18.854;2023-02-26T04:13:29;4;4;2
55043;PMS5003;54902;50.420;18.854;2023-02-26T04:14:00;4;4;2
55043;PMS5003;54902;50.420;18.854;2023-02-26T04:14:31;4;4;2
55043;PMS5003;54902;50.420;18.854;2023-02-26T04:15:02;4;4;2
55043;PMS5003;54902;50.420;18.854;2023-02-26T04:15:34;3;3;3
55043;PMS5003;54902;50.420;18.854;2023-02-26T04:16:05;3;3;3
55043;PMS5003;54902;50.420;18.854;2023-02-26T04:16:36;3;3;3
55043;PMS5003;54902;50.420;18.854;2023-02-26T04:17:07;3;3;3
55043;PMS5003;54902;50.420;18.854;2023-02-26T04:17:38;3;3;3
55043;PMS5003;54902;50.420;18.854;2023-02-26T04:18:09;3;3;3
55043;PMS5003;54902;50.420;18.854;2023-02-26T04:18:40;3;3;3
55043;PMS5003;54902;50.420;18.854;2023-02-26T04:19:12;3;3;3
55043;PMS5003;54902;50.420;18.854;2023-02-26T04:19:43;3;3;3
55043;PMS5003;54902;50.420;18.854;2023-02-26T04:20:14;3;3;3
55043;PMS5003;54902;50.420;18.854;2023-02-26T04:20:45;4;4;4
55043;PMS5003;54902;50.420;18.854;2023-02-26T04:21:20;4;4;4
55043;PMS5003;54902;50.420;18.854;2023-02-26T04:21:52;4;4;4
55043;PMS5003;54902;50.420;18.854;2023-02-26T04:22:23;4;4;4
55043;PMS5003;54902;50.420;18.854;2023-02-26T04:22:54;4;4;4
55043;PMS5003;54902;50.420;18.854;2023-02-26T04:23:25;4;4;4
55043;PMS5003;54902;50.420;18.854;2023-02-26T04:23:56;4;4;4
55043;PMS5003;54902;50.420;18.854;2023-02-26T04:24:27;4;4;4
55043;PMS5003;54902;50.420;18.854;2023-02-26T04:24:58;4;4;4
55043;PMS5003;54902;50.420;18.854;2023-02-26T04:25:29;4;4;4
55043;PMS5003;54902;50.420;18.854;2023-02-26T04:26:00;4;4;4
55043;PMS5003;54902;50.420;18.854;2023-02-26T04:26:31;4;4;4
55043;PMS5003;54902;50.420;18.854;2023-02-26T04:27:02;4;4;4
55043;PMS5003;54902;50.420;18.854;2023-02-26T04:27:33;4;4;4
55043;PMS5003;54902;50.420;18.854;2023-02-26T04:28:04;4;4;4
55043;PMS5003;54902;50.420;18.854;2023-02-26T04:28:34;4;4;4
55043;PMS5003;54902;50.420;18.854;2023-02-26T04:29:07;3;3;3
55043;PMS5003;54902;50.420;18.854;2023-02-26T04:29:38;3;3;3
55043;PMS5003;54902;50.420;18.854;2023-02-26T04:30:09;3;3;3
55043;PMS5003;54902;50.420;18.854;2023-02-26T04:30:41;3;3;3
55043;PMS5003;54902;50.420;18.854;2023-02-26T04:31:12;3;3;2
55043;PMS5003;54902;50.420;18.854;2023-02-26T04:31:43;3;3;2
55043;PMS5003;54902;50.420;18.854;2023-02-26T04:32:14;3;3;2
55043;PMS5003;54902;50.420;18.854;2023-02-26T04:32:44;3;3;2
55043;PMS5003;54902;50.420;18.854;2023-02-26T04:33:15;3;3;2
55043;PMS5003;54902;50.420;18.854;2023-02-26T04:33:46;3;3;2
55043;PMS5003;54902;50.420;18.854;2023-02-26T04:34:17;3;3;2
55043;PMS5003;54902;50.420;18.854;2023-02-26T04:34:48;3;3;2
55043;PMS5003;54902;50.420;18.854;2023-02-26T04:35:19;3;3;2
55043;PMS5003;54902;50.420;18.854;2023-02-26T04:35:50;3;3;2
55043;PMS5003;54902;50.420;18.854;2023-02-26T04:36:21;4;4;3
55043;PMS5003;54902;50.420;18.854;2023-02-26T04:36:52;4;4;3
55043;PMS5003;54902;50.420;18.854;2023-02-26T04:37:23;4;4;3
55043;PMS5003;54902;50.420;18.854;2023-02-26T04:37:54;4;4;3
55043;PMS5003;54902;50.420;18.854;2023-02-26T04:38:25;3;3;2
55043;PMS5003;54902;50.420;18.854;2023-02-26T04:38:56;3;3;2
55043;PMS5003;54902;50.420;18.854;2023-02-26T04:39:27;3;3;2
55043;PMS5003;54902;50.420;18.854;2023-02-26T04:39:58;3;3;2
55043;PMS5003;54902;50.420;18.854;2023-02-26T04:40:29;3;3;2
55043;PMS5003;54902;50.420;18.854;2023-02-26T04:41:00;3;3;2
55043;PMS5003;54902;50.420;18.854;2023-02-26T04:41:32;6;6;3
55043;PMS5003;54902;50.420;18.854;2023-02-26T04:42:03;6;6;3
55043;PMS5003;54902;50.420;18.854;2023-02-26T04:42:34;6;6;3
55043;PMS5003;54902;50.420;18.854;2023-02-26T04:43:05;6;6;3
55043;PMS5003;54902;50.420;18.854;2023-02-26T04:43:35;6;6;3
55043;PMS5003;54902;50.420;18.854;2023-02-26T04:44:07;6;6;3
55043;PMS5003;54902;50.420;18.854;2023-02-26T04:44:38;6;6;3
55043;PMS5003;54902;50.420;18.854;2023-02-26T04:45:08;6;6;3
55043;PMS5003;54902;50.420;18.854;2023-02-26T04:45:39;6;6;3
55043;PMS5003;54902;50.420;18.854;2023-02-26T04:46:10;6;6;3
55043;PMS5003;54902;50.420;18.854;2023-02-26T04:46:41;7;7;4
55043;PMS5003;54902;50.420;18.854;2023-02-26T04:47:12;7;7;4
55043;PMS5003;54902;50.420;18.854;2023-02-26T04:47:43;7;7;4
55043;PMS5003;54902;50.420;18.854;2023-02-26T04:48:15;7;7;4
55043;PMS5003;54902;50.420;18.854;2023-02-26T04:48:46;5;5;3
55043;PMS5003;54902;50.420;18.854;2023-02-26T04:49:18;5;5;3
55043;PMS5003;54902;50.420;18.854;2023-02-26T04:49:49;5;5;3
55043;PMS5003;54902;50.420;18.854;2023-02-26T04:50:19;5;5;3
55043;PMS5003;54902;50.420;18.854;2023-02-26T04:50:50;5;5;3
55043;PMS5003;54902;50.420;18.854;2023-02-26T04:51:21;5;5;3
55043;PMS5003;54902;50.420;18.854;2023-02-26T04:51:52;6;6;5
55043;PMS5003;54902;50.420;18.854;2023-02-26T04:52:23;6;6;5